createdAt,value
2023-02-11T00:01:22.226Z,-0.94
2023-02-11T00:03:51.935Z,-0.97
2023-02-11T00:06:20.329Z,-0.95
2023-02-11T00:08:48.839Z,-1.00
2023-02-11T00:11:18.687Z,-0.95
2023-02-11T00:13:47.632Z,-1.01
2023-02-11T00:16:17.476Z,-1.02
2023-02-11T00:18:45.827Z,-1.00
2023-02-11T00:21:17.663Z,-0.93
2023-02-11T00:23:46.503Z,-1.10
2023-02-11T00:26:15.056Z,-1.16
2023-02-11T00:28:43.753Z,-1.05
2023-02-11T00:31:12.224Z,-1.05
2023-02-11T00:33:40.656Z,-1.08
2023-02-11T00:36:11.016Z,-1.10
2023-02-11T00:38:40.796Z,-1.07
2023-02-11T00:41:09.101Z,-1.11
2023-02-11T00:43:37.448Z,-1.07
2023-02-11T00:46:06.160Z,-1.14
2023-02-11T00:48:34.505Z,-1.25
2023-02-11T00:51:04.310Z,-1.33
2023-02-11T00:53:32.807Z,-1.32
2023-02-11T00:56:02.745Z,-1.32
2023-02-11T00:58:31.600Z,-1.40
2023-02-11T01:01:00.096Z,-1.39
2023-02-11T01:03:28.484Z,-1.45
2023-02-11T01:05:57.334Z,-1.35
2023-02-11T01:08:25.601Z,-1.37
2023-02-11T01:10:58.334Z,-1.38
2023-02-11T01:13:28.993Z,-1.48
2023-02-11T01:15:57.978Z,-1.53
2023-02-11T01:18:26.860Z,-1.62
2023-02-11T01:20:55.771Z,-1.64
2023-02-11T01:23:24.052Z,-1.65
2023-02-11T01:25:52.928Z,-1.63
2023-02-11T01:28:23.101Z,-1.65
2023-02-11T01:30:53.173Z,-1.66
2023-02-11T01:33:22.205Z,-1.69
2023-02-11T01:35:51.189Z,-1.75
2023-02-11T01:38:21.046Z,-1.79
2023-02-11T01:40:50.502Z,-1.79
2023-02-11T01:43:19.076Z,-1.79
2023-02-11T01:46:00.690Z,-1.74
2023-02-11T01:48:31.604Z,-1.82
2023-02-11T01:51:04.772Z,-1.87
2023-02-11T01:53:51.418Z,-1.88
2023-02-11T01:56:34.413Z,-1.79
2023-02-11T01:59:08.384Z,-1.86
2023-02-11T02:01:39.619Z,-1.90
2023-02-11T02:04:08.743Z,-2.02
2023-02-11T02:06:39.793Z,-2.06
2023-02-11T02:09:10.402Z,-2.03
2023-02-11T02:11:38.867Z,-2.07
2023-02-11T02:14:07.363Z,-2.07
2023-02-11T02:16:38.024Z,-2.13
2023-02-11T02:19:28.147Z,-2.13
2023-02-11T02:22:14.443Z,-2.03
2023-02-11T02:25:01.198Z,-2.14
2023-02-11T02:27:43.176Z,-2.12
2023-02-11T02:31:15.105Z,-2.15
2023-02-11T02:33:48.824Z,-2.09
2023-02-11T02:36:20.325Z,-2.20
2023-02-11T02:38:52.356Z,-2.29
2023-02-11T02:41:21.724Z,-2.25
2023-02-11T02:43:51.065Z,-2.28
2023-02-11T02:46:21.526Z,-2.30
2023-02-11T02:48:52.874Z,-2.29
2023-02-11T02:51:37.659Z,-2.32
2023-02-11T02:54:31.442Z,-2.24
2023-02-11T02:57:01.959Z,-2.19
2023-02-11T02:59:39.474Z,-2.18
2023-02-11T03:02:14.158Z,-2.16
2023-02-11T03:04:50.455Z,-2.08
2023-02-11T03:07:23.666Z,-2.05
2023-02-11T03:09:56.407Z,-2.06
2023-02-11T03:12:26.194Z,-2.03
2023-02-11T03:14:54.478Z,-1.94
2023-02-11T03:17:23.564Z,-1.82
2023-02-11T03:19:53.358Z,-1.88
2023-02-11T03:22:24.420Z,-1.79
2023-02-11T03:24:52.943Z,-1.77
2023-02-11T03:27:27.128Z,-1.71
2023-02-11T03:29:58.926Z,-1.74
2023-02-11T03:32:31.039Z,-1.77
2023-02-11T03:35:02.425Z,-1.72
2023-02-11T03:37:34.353Z,-1.69
2023-02-11T03:40:05.614Z,-1.72
2023-02-11T03:42:37.442Z,-1.73
2023-02-11T03:45:08.156Z,-1.69
2023-02-11T03:47:39.382Z,-1.61
2023-02-11T03:50:11.673Z,-1.61
2023-02-11T03:52:40.364Z,-1.72
2023-02-11T03:55:11.562Z,-1.66
2023-02-11T03:57:40.170Z,-1.73
2023-02-11T04:00:10.386Z,-1.77
2023-02-11T04:02:40.235Z,-1.76
2023-02-11T04:05:12.001Z,-1.76
2023-02-11T04:07:40.440Z,-1.75
2023-02-11T04:10:09.417Z,-1.82
2023-02-11T04:12:37.648Z,-1.83
2023-02-11T04:15:06.602Z,-1.89
2023-02-11T04:17:34.949Z,-1.88
2023-02-11T04:20:03.299Z,-1.92
2023-02-11T04:22:33.746Z,-1.91
2023-02-11T04:25:01.971Z,-1.95
2023-02-11T04:27:31.443Z,-1.95
2023-02-11T04:29:59.833Z,-2.02
2023-02-11T04:32:28.064Z,-1.97
2023-02-11T04:34:56.896Z,-1.91
2023-02-11T04:37:25.359Z,-1.94
2023-02-11T04:39:55.068Z,-1.83
2023-02-11T04:42:23.336Z,-1.82
2023-02-11T04:44:51.963Z,-1.86
2023-02-11T04:47:20.505Z,-1.89
2023-02-11T04:49:48.817Z,-1.96
2023-02-11T04:52:17.247Z,-1.97
2023-02-11T04:54:45.519Z,-1.97
2023-02-11T04:57:15.173Z,-2.08
2023-02-11T04:59:43.761Z,-2.08
2023-02-11T05:02:12.038Z,-2.13
2023-02-11T05:04:40.319Z,-2.16
2023-02-11T05:07:09.297Z,-2.21
2023-02-11T05:09:37.591Z,-2.24
2023-02-11T05:12:08.911Z,-2.34
2023-02-11T05:14:38.761Z,-2.36
2023-02-11T05:17:07.013Z,-2.42
2023-02-11T05:19:35.456Z,-2.54
2023-02-11T05:22:03.943Z,-2.47
2023-02-11T05:24:32.793Z,-2.42
2023-02-11T05:27:01.359Z,-2.44
2023-02-11T05:29:30.244Z,-2.46
2023-02-11T05:32:00.428Z,-2.52
2023-02-11T05:34:28.694Z,-2.43
2023-02-11T05:36:57.242Z,-2.56
2023-02-11T05:39:26.110Z,-2.50
2023-02-11T05:41:54.904Z,-2.51
2023-02-11T05:44:23.268Z,-2.40
2023-02-11T05:46:51.536Z,-2.34
2023-02-11T05:49:21.408Z,-2.22
2023-02-11T05:51:49.828Z,-2.19
2023-02-11T05:54:18.291Z,-2.15
2023-02-11T05:56:46.497Z,-2.08
2023-02-11T05:59:15.941Z,-2.09
2023-02-11T06:01:44.338Z,-2.14
2023-02-11T06:04:12.651Z,-1.91
2023-02-11T06:06:42.434Z,-1.88
2023-02-11T06:09:11.592Z,-1.96
2023-02-11T06:11:40.489Z,-2.00
2023-02-11T06:14:10.106Z,-2.02
2023-02-11T06:16:38.371Z,-1.91
2023-02-11T06:19:06.661Z,-1.81
2023-02-11T06:21:43.232Z,-1.65
2023-02-11T06:24:14.091Z,-1.75
2023-02-11T06:26:42.660Z,-1.56
2023-02-11T06:29:10.930Z,-1.68
2023-02-11T06:31:40.006Z,-1.86
2023-02-11T06:34:08.644Z,-1.72
2023-02-11T06:36:37.284Z,-1.90
2023-02-11T06:39:05.895Z,-1.78
2023-02-11T06:41:35.652Z,-1.69
2023-02-11T06:44:04.152Z,-1.60
2023-02-11T06:46:32.961Z,-1.47
2023-02-11T06:49:01.322Z,-1.50
2023-02-11T06:51:29.640Z,-1.55
2023-02-11T06:53:57.900Z,-1.39
2023-02-11T06:56:27.650Z,-1.17
2023-02-11T06:58:58.053Z,-1.31
2023-02-11T07:01:27.845Z,-1.42
2023-02-11T07:03:56.408Z,-1.41
2023-02-11T07:06:28.178Z,-1.30
2023-02-11T07:08:56.934Z,-1.30
2023-02-11T07:11:26.802Z,-1.40
2023-02-11T07:13:58.493Z,-1.43
2023-02-11T07:16:27.713Z,-1.15
2023-02-11T07:18:56.415Z,-1.15
2023-02-11T07:21:25.151Z,-1.08
2023-02-11T07:23:53.772Z,-0.77
2023-02-11T07:26:23.581Z,-0.88
2023-02-11T07:28:52.393Z,-0.83
2023-02-11T07:31:23.821Z,-0.63
2023-02-11T07:33:53.929Z,-0.84
2023-02-11T07:36:22.557Z,-0.77
2023-02-11T07:38:51.199Z,-0.89
2023-02-11T07:41:21.494Z,-0.67
2023-02-11T07:43:49.956Z,-0.71
2023-02-11T07:46:22.370Z,-0.61
2023-02-11T07:48:51.468Z,0.52
2023-02-11T07:51:22.033Z,0.23
2023-02-11T07:53:50.704Z,-0.33
2023-02-11T07:56:19.935Z,0.11
2023-02-11T07:58:48.326Z,1.22
2023-02-11T08:01:19.834Z,0.67
2023-02-11T08:03:49.840Z,0.09
2023-02-11T08:06:20.448Z,-0.01
2023-02-11T08:08:49.182Z,0.32
2023-02-11T08:11:18.698Z,0.04
2023-02-11T08:13:47.220Z,-0.03
2023-02-11T08:16:19.794Z,-0.11
2023-02-11T08:18:50.004Z,0.18
2023-02-11T08:21:19.213Z,0.36
2023-02-11T08:23:48.040Z,0.50
2023-02-11T08:26:18.272Z,0.53
2023-02-11T08:28:48.066Z,0.63
2023-02-11T08:31:18.089Z,1.94
2023-02-11T08:33:46.935Z,1.82
2023-02-11T08:36:18.295Z,1.55
2023-02-11T08:38:46.788Z,0.91
2023-02-11T08:41:15.824Z,1.07
2023-02-11T08:43:44.960Z,1.28
2023-02-11T08:46:17.513Z,1.23
2023-02-11T08:48:46.419Z,2.76
2023-02-11T08:51:18.340Z,-144.17
2023-02-11T08:53:47.750Z,-144.17
2023-02-11T08:56:17.910Z,-144.17
2023-02-11T08:58:46.226Z,-144.17
2023-02-11T09:01:16.039Z,-144.17
2023-02-11T09:03:44.507Z,-144.17
2023-02-11T09:06:13.964Z,-144.17
2023-02-11T09:08:46.525Z,-144.17
2023-02-11T09:11:15.046Z,-144.17
2023-02-11T09:13:44.224Z,-144.17
2023-02-11T09:16:19.221Z,-144.17
2023-02-11T09:18:48.008Z,-144.17
2023-02-11T09:21:18.077Z,-144.17
2023-02-11T09:23:48.446Z,-144.17
2023-02-11T09:26:19.123Z,-144.17
2023-02-11T09:28:47.994Z,-144.17
2023-02-11T09:31:18.636Z,-144.17
2023-02-11T09:33:49.070Z,-144.17
2023-02-11T09:36:19.152Z,-144.17
2023-02-11T09:38:50.297Z,-144.17
2023-02-11T09:41:36.665Z,-144.17
2023-02-11T09:44:07.414Z,-144.17
2023-02-11T09:46:41.759Z,-144.17
2023-02-11T09:49:18.628Z,-144.17
2023-02-11T09:51:49.613Z,-144.17
2023-02-11T09:54:30.088Z,-144.17
2023-02-11T09:56:58.941Z,-144.17
2023-02-11T09:59:27.211Z,-144.17
2023-02-11T10:01:59.349Z,-144.17
2023-02-11T10:04:41.766Z,-144.17
2023-02-11T10:07:18.963Z,-144.17
2023-02-11T10:10:09.103Z,-144.17
2023-02-11T10:12:52.705Z,-144.17
2023-02-11T10:15:23.215Z,-144.17
2023-02-11T10:18:02.998Z,-144.17
2023-02-11T10:20:34.313Z,-144.17
2023-02-11T10:23:06.852Z,-144.17
2023-02-11T10:25:39.913Z,-144.17
2023-02-11T10:28:15.227Z,-144.17
2023-02-11T10:30:46.689Z,-144.17
2023-02-11T10:33:18.457Z,-144.17
2023-02-11T10:35:48.624Z,-144.17
2023-02-11T10:38:16.980Z,-144.17
2023-02-11T10:40:46.764Z,-144.17
2023-02-11T10:43:16.568Z,-144.17
2023-02-11T10:45:46.918Z,-144.17
2023-02-11T10:48:43.275Z,-144.17
2023-02-11T10:51:23.608Z,-144.17
2023-02-11T10:54:14.501Z,-144.17
2023-02-11T10:56:47.619Z,-144.17
2023-02-11T10:59:21.494Z,-144.17
2023-02-11T11:01:52.173Z,-144.17
2023-02-11T11:04:36.659Z,-144.17
2023-02-11T11:07:14.854Z,-144.17
2023-02-11T11:09:49.395Z,-144.17
2023-02-11T11:12:35.230Z,-144.17
2023-02-11T11:15:16.666Z,-144.17
2023-02-11T11:17:45.079Z,-144.17
2023-02-11T11:20:21.955Z,-144.17
2023-02-11T11:22:52.093Z,-144.17
2023-02-11T11:25:28.114Z,-144.17
2023-02-11T11:28:00.967Z,-144.17
2023-02-11T11:30:34.595Z,-144.17
2023-02-11T11:33:05.094Z,-144.17
2023-02-11T11:35:34.306Z,-144.17
2023-02-11T11:38:05.469Z,-144.17
2023-02-11T11:40:34.735Z,-144.17
2023-02-11T11:43:22.661Z,-144.17
2023-02-11T11:45:56.620Z,-144.17
2023-02-11T11:48:28.456Z,-144.17
2023-02-11T11:50:58.648Z,-144.17
2023-02-11T11:53:30.871Z,-144.17
2023-02-11T11:56:04.164Z,-144.17
2023-02-11T11:58:34.514Z,-144.17
2023-02-11T12:01:14.815Z,-144.17
2023-02-11T12:04:02.917Z,-144.17
2023-02-11T12:06:39.179Z,-144.17
2023-02-11T12:09:18.033Z,-144.17
2023-02-11T12:12:01.393Z,-144.17
2023-02-11T12:14:42.855Z,-144.17
2023-02-11T12:17:18.980Z,-144.17
2023-02-11T12:20:04.245Z,-144.17
2023-02-11T12:22:39.855Z,-144.17
2023-02-11T12:25:23.149Z,-144.17
2023-02-11T12:27:58.589Z,-144.17
2023-02-11T12:30:40.818Z,-144.17
2023-02-11T12:33:15.904Z,-144.17
2023-02-11T12:35:49.749Z,-144.17
2023-02-11T12:38:55.733Z,-144.17
2023-02-11T12:42:06.788Z,-144.17
2023-02-11T12:44:40.532Z,-144.17
2023-02-11T12:47:18.799Z,-144.17
2023-02-11T12:49:55.020Z,-144.17
2023-02-11T12:52:41.244Z,-144.17
2023-02-11T12:55:13.346Z,-144.17
2023-02-11T12:57:43.352Z,-144.17
2023-02-11T13:00:16.384Z,-144.17
2023-02-11T13:02:51.302Z,-144.17
2023-02-11T13:05:25.425Z,-144.17
2023-02-11T13:07:57.267Z,-144.17
2023-02-11T13:10:29.254Z,-144.17
2023-02-11T13:13:15.990Z,-144.17
2023-02-11T13:15:45.455Z,-144.17
2023-02-11T13:18:22.180Z,-144.17
2023-02-11T13:20:55.112Z,-144.17
2023-02-11T13:23:27.558Z,-144.17
2023-02-11T13:25:58.412Z,-144.17
2023-02-11T13:28:42.854Z,-144.17
2023-02-11T13:31:13.227Z,-144.17
2023-02-11T13:33:44.664Z,-144.17
2023-02-11T13:36:19.680Z,-144.17
2023-02-11T13:39:00.419Z,-144.17
2023-02-11T13:41:38.292Z,-144.17
2023-02-11T13:44:28.194Z,-144.17
2023-02-11T13:47:02.367Z,-144.17
2023-02-11T13:49:38.517Z,-144.17
2023-02-11T13:52:17.032Z,-144.17
2023-02-11T13:54:50.046Z,-144.17
2023-02-11T13:57:42.334Z,-144.17
2023-02-11T14:00:50.511Z,-144.17
2023-02-11T14:03:51.100Z,-144.17
2023-02-11T14:06:44.620Z,-144.17
2023-02-11T14:09:35.654Z,-144.17
2023-02-11T14:12:32.543Z,-144.17
2023-02-11T14:15:05.397Z,-144.17
2023-02-11T14:17:35.587Z,-144.17
2023-02-11T14:20:05.841Z,-144.17
2023-02-11T14:22:47.094Z,-144.17
2023-02-11T14:25:22.232Z,-144.17
2023-02-11T14:27:55.525Z,-144.17
2023-02-11T14:30:47.458Z,-144.17
2023-02-11T14:33:52.384Z,-144.17
2023-02-11T14:36:39.827Z,-144.17
2023-02-11T14:39:19.559Z,-144.17
2023-02-11T14:41:48.907Z,-144.17
2023-02-11T14:44:20.074Z,-144.17
2023-02-11T14:46:50.258Z,-144.17
2023-02-11T14:49:25.299Z,-144.17
2023-02-11T14:51:55.568Z,-144.17
2023-02-11T14:54:26.823Z,-144.17
2023-02-11T14:57:09.975Z,-144.17
2023-02-11T14:59:38.566Z,-144.17
2023-02-11T15:02:21.936Z,-144.17
2023-02-11T15:04:50.332Z,-144.17
2023-02-11T15:07:20.069Z,-144.17
2023-02-11T15:09:51.371Z,-144.17
2023-02-11T15:12:23.817Z,-144.17
2023-02-11T15:14:53.779Z,-144.17
2023-02-11T15:17:25.345Z,-144.17
2023-02-11T15:19:55.884Z,-144.17
2023-02-11T15:22:27.771Z,-144.17
2023-02-11T15:25:05.249Z,-144.17
2023-02-11T15:27:40.314Z,-144.17
2023-02-11T15:30:25.514Z,-144.17
2023-02-11T15:32:58.916Z,-144.17
2023-02-11T15:35:29.045Z,-144.17
2023-02-11T15:37:58.912Z,-144.17
2023-02-11T15:40:32.490Z,-144.17
2023-02-11T15:43:02.829Z,-144.17
2023-02-11T15:45:32.659Z,-144.17
2023-02-11T15:48:07.260Z,-144.17
2023-02-11T15:50:37.445Z,-144.17
2023-02-11T15:53:16.361Z,-144.17
2023-02-11T15:55:48.698Z,-144.17
2023-02-11T15:58:17.265Z,-144.17
2023-02-11T16:00:50.017Z,-144.17
2023-02-11T16:03:22.383Z,-144.17
2023-02-11T16:05:51.011Z,-144.17
2023-02-11T16:08:25.596Z,-144.17
2023-02-11T16:11:03.347Z,-144.17
2023-02-11T16:13:34.050Z,-144.17
2023-02-11T16:16:05.062Z,-144.17
2023-02-11T16:18:39.991Z,-144.17
2023-02-11T16:21:16.175Z,-144.17
2023-02-11T16:23:45.240Z,-144.17
2023-02-11T16:26:23.403Z,-144.17
2023-02-11T16:28:51.882Z,-144.17
2023-02-11T16:31:20.537Z,-144.17
2023-02-11T16:33:48.967Z,-144.17
2023-02-11T16:36:18.454Z,-144.17
2023-02-11T16:38:47.500Z,-144.17
2023-02-11T16:41:17.340Z,-144.17
2023-02-11T16:43:45.848Z,-144.17
2023-02-11T16:46:16.542Z,-144.17
2023-02-11T16:48:45.187Z,-144.17
2023-02-11T16:51:13.720Z,2.76
2023-02-11T16:53:42.065Z,-1.56
2023-02-11T16:56:18.045Z,-1.55
2023-02-11T16:58:46.989Z,-1.57
2023-02-11T17:01:15.553Z,-1.61
2023-02-11T17:03:43.994Z,-1.63
2023-02-11T17:06:13.674Z,-1.57
2023-02-11T17:08:42.263Z,-1.54
2023-02-11T17:11:11.352Z,-1.50
2023-02-11T17:13:42.303Z,-1.52
2023-02-11T17:16:17.699Z,-1.57
2023-02-11T17:18:46.399Z,-1.65
2023-02-11T17:21:15.190Z,-1.54
2023-02-11T17:23:43.879Z,-1.58
2023-02-11T17:26:12.157Z,-1.64
2023-02-11T17:28:41.873Z,-1.63
2023-02-11T17:31:10.731Z,-1.65
2023-02-11T17:33:39.162Z,-1.67
2023-02-11T17:36:08.826Z,-1.66
2023-02-11T17:38:38.397Z,-1.63
2023-02-11T17:41:07.163Z,-1.66
2023-02-11T17:43:36.466Z,-1.66
2023-02-11T17:46:09.381Z,-1.63
2023-02-11T17:48:39.132Z,-1.59
2023-02-11T17:51:08.913Z,-1.59
2023-02-11T17:53:37.337Z,-1.50
2023-02-11T17:56:07.406Z,-1.47
2023-02-11T17:58:35.927Z,-1.55
2023-02-11T18:01:04.400Z,-1.55
2023-02-11T18:03:34.288Z,-1.59
2023-02-11T18:06:03.535Z,-1.47
2023-02-11T18:08:31.912Z,-1.60
2023-02-11T18:11:00.396Z,-1.58
2023-02-11T18:13:29.833Z,-1.66
2023-02-11T18:16:03.954Z,-1.46
2023-02-11T18:18:33.841Z,-1.34
2023-02-11T18:21:04.230Z,-1.49
2023-02-11T18:23:32.637Z,-1.56
2023-02-11T18:26:01.029Z,-1.48
2023-02-11T18:28:29.676Z,-1.55
2023-02-11T18:30:59.053Z,-1.54
2023-02-11T18:33:28.414Z,-1.56
2023-02-11T18:35:58.433Z,-1.42
2023-02-11T18:38:27.012Z,-1.44
2023-02-11T18:40:58.919Z,-1.51
2023-02-11T18:43:31.645Z,-1.47
2023-02-11T18:46:00.434Z,-1.57
2023-02-11T18:48:29.431Z,-1.53
2023-02-11T18:50:59.273Z,-1.42
2023-02-11T18:53:27.785Z,-1.52
2023-02-11T18:55:56.089Z,-1.53
2023-02-11T18:58:24.327Z,-1.56
2023-02-11T19:00:52.733Z,-1.58
2023-02-11T19:03:21.313Z,-1.57
2023-02-11T19:05:51.254Z,-1.54
2023-02-11T19:08:21.408Z,-1.42
2023-02-11T19:10:50.163Z,-1.51
2023-02-11T19:13:18.519Z,-1.56
2023-02-11T19:15:47.908Z,-1.64
2023-02-11T19:18:17.594Z,-1.70
2023-02-11T19:20:46.448Z,-1.54
2023-02-11T19:23:15.139Z,-1.46
2023-02-11T19:25:48.588Z,-1.41
2023-02-11T19:28:17.394Z,-1.37
2023-02-11T19:30:45.984Z,-1.47
2023-02-11T19:33:14.597Z,-1.27
2023-02-11T19:35:43.799Z,-1.40
2023-02-11T19:38:13.823Z,-1.38
2023-02-11T19:40:42.293Z,-1.42
2023-02-11T19:43:13.239Z,-1.46
2023-02-11T19:45:41.832Z,-1.35
2023-02-11T19:48:15.514Z,-1.40
2023-02-11T19:50:44.720Z,-1.43
2023-02-11T19:53:13.324Z,-1.40
2023-02-11T19:55:43.665Z,-1.44
2023-02-11T19:58:13.810Z,-1.38
2023-02-11T20:00:42.542Z,-1.47
2023-02-11T20:03:11.122Z,-1.43
2023-02-11T20:05:43.651Z,-1.39
2023-02-11T20:08:11.940Z,-1.40
2023-02-11T20:10:40.271Z,-1.37
2023-02-11T20:13:08.670Z,-1.27
2023-02-11T20:15:38.429Z,-1.37
2023-02-11T20:18:07.029Z,-1.13
2023-02-11T20:20:35.620Z,-1.24
2023-02-11T20:23:04.184Z,-1.19
2023-02-11T20:25:32.541Z,-1.02
2023-02-11T20:28:00.923Z,-1.12
2023-02-11T20:30:29.348Z,-1.28
2023-02-11T20:32:59.020Z,-1.28
2023-02-11T20:35:27.505Z,-1.33
2023-02-11T20:37:55.867Z,-1.28
2023-02-11T20:40:24.189Z,-1.23
2023-02-11T20:42:53.481Z,-1.18
2023-02-11T20:45:21.786Z,-1.20
2023-02-11T20:47:50.151Z,-1.06
2023-02-11T20:50:20.218Z,-1.03
2023-02-11T20:52:48.618Z,-1.16
2023-02-11T20:55:17.684Z,-1.21
2023-02-11T20:57:46.761Z,-1.22
2023-02-11T21:00:15.586Z,-1.07
2023-02-11T21:02:44.157Z,-0.89
2023-02-11T21:05:12.731Z,-1.02
2023-02-11T21:07:42.387Z,-1.08
2023-02-11T21:10:11.174Z,-1.15
2023-02-11T21:12:41.134Z,-1.19
2023-02-11T21:15:11.335Z,-1.06
2023-02-11T21:17:39.611Z,-1.03
2023-02-11T21:20:09.363Z,-1.11
2023-02-11T21:22:37.655Z,-1.09
2023-02-11T21:25:08.721Z,-1.10
2023-02-11T21:27:37.817Z,-0.99
2023-02-11T21:30:07.672Z,-0.88
2023-02-11T21:32:35.953Z,-0.85
2023-02-11T21:35:04.314Z,-0.95
2023-02-11T21:37:33.148Z,-1.00
2023-02-11T21:40:01.436Z,-0.76
2023-02-11T21:42:32.791Z,-0.87
2023-02-11T21:45:01.079Z,-1.00
2023-02-11T21:47:29.870Z,-0.99
2023-02-11T21:49:58.238Z,-0.90
2023-02-11T21:52:26.569Z,-0.92
2023-02-11T21:54:54.824Z,-0.92
2023-02-11T21:57:23.425Z,-0.90
2023-02-11T21:59:53.275Z,-0.89
2023-02-11T22:02:21.933Z,-0.96
2023-02-11T22:04:50.382Z,-1.00
2023-02-11T22:07:20.651Z,-1.01
2023-02-11T22:09:48.956Z,-0.72
2023-02-11T22:12:17.358Z,-0.89
2023-02-11T22:14:46.427Z,-0.92
2023-02-11T22:17:16.171Z,-0.75
2023-02-11T22:19:44.566Z,-0.56
2023-02-11T22:22:13.612Z,-0.62
2023-02-11T22:24:41.971Z,-0.80
2023-02-11T22:27:10.354Z,-0.56
2023-02-11T22:29:38.740Z,-0.72
2023-02-11T22:32:07.586Z,-0.63
2023-02-11T22:34:37.796Z,-0.65
2023-02-11T22:37:06.586Z,-0.71
2023-02-11T22:39:36.437Z,-0.88
2023-02-11T22:42:04.952Z,-0.72
2023-02-11T22:44:33.299Z,-0.67
2023-02-11T22:47:01.672Z,-0.70
2023-02-11T22:49:32.643Z,-0.80
2023-02-11T22:52:02.295Z,-0.66
2023-02-11T22:54:31.537Z,-0.47
2023-02-11T22:56:59.942Z,-0.60
2023-02-11T22:59:28.382Z,-0.61
2023-02-11T23:01:56.897Z,-0.43
2023-02-11T23:04:25.844Z,-0.11
2023-02-11T23:06:54.592Z,0.25
2023-02-11T23:09:24.246Z,-0.02
2023-02-11T23:11:54.554Z,0.04
2023-02-11T23:14:23.004Z,-0.04
2023-02-11T23:16:52.051Z,-0.18
2023-02-11T23:19:20.455Z,-0.07
2023-02-11T23:21:52.246Z,-0.22
2023-02-11T23:24:20.656Z,-0.25
2023-02-11T23:26:50.367Z,-0.41
2023-02-11T23:29:18.656Z,-0.42
2023-02-11T23:31:47.170Z,-0.51
2023-02-11T23:34:17.377Z,-0.38
2023-02-11T23:36:46.284Z,-0.09
2023-02-11T23:39:15.824Z,-0.14
2023-02-11T23:41:44.063Z,-0.17
2023-02-11T23:44:13.837Z,-0.23
2023-02-11T23:46:42.267Z,-0.37
2023-02-11T23:49:10.546Z,-0.30
2023-02-11T23:51:38.888Z,-0.26
2023-02-11T23:54:07.271Z,-0.24
2023-02-11T23:56:37.011Z,-0.22
2023-02-11T23:59:05.411Z,-0.22
